createdAt,value
2018-04-30T00:01:16.311Z,98228.93
2018-04-30T00:03:45.879Z,98219.66
2018-04-30T00:06:15.443Z,98221.53
2018-04-30T00:08:45.008Z,98220.56
2018-04-30T00:11:14.640Z,98220.72
2018-04-30T00:13:44.308Z,98220.16
2018-04-30T00:16:13.875Z,98216.20
2018-04-30T00:18:43.483Z,98213.06
2018-04-30T00:21:13.038Z,98208.61
2018-04-30T00:23:42.621Z,98217.23
2018-04-30T00:26:12.183Z,98216.51
2018-04-30T00:28:41.828Z,98218.03
2018-04-30T00:31:11.387Z,98222.85
2018-04-30T00:33:41.045Z,98219.89
2018-04-30T00:36:10.762Z,98226.47
2018-04-30T00:38:40.326Z,98224.30
2018-04-30T00:41:09.992Z,98217.47
2018-04-30T00:43:39.643Z,98214.48
2018-04-30T00:46:09.215Z,98211.84
2018-04-30T00:48:38.942Z,98215.45
2018-04-30T00:51:08.499Z,98216.41
2018-04-30T00:53:38.067Z,98207.41
2018-04-30T00:56:08.323Z,98213.52
2018-04-30T00:58:37.871Z,98200.33
2018-04-30T01:01:07.151Z,98202.16
2018-04-30T01:03:36.703Z,98197.33
2018-04-30T01:06:06.364Z,98197.58
2018-04-30T01:08:35.932Z,98192.67
2018-04-30T01:11:05.458Z,98194.91
2018-04-30T01:13:35.044Z,98195.72
2018-04-30T01:16:04.639Z,98202.65
2018-04-30T01:18:34.204Z,98202.57
2018-04-30T01:21:03.901Z,98199.48
2018-04-30T01:23:33.468Z,98197.95
2018-04-30T01:26:03.026Z,98199.01
2018-04-30T01:28:32.584Z,98190.73
2018-04-30T01:31:01.934Z,98188.70
2018-04-30T01:33:31.590Z,98187.17
2018-04-30T01:36:01.151Z,98185.70
2018-04-30T01:38:30.732Z,98189.95
2018-04-30T01:41:00.204Z,98187.87
2018-04-30T01:43:29.982Z,98183.53
2018-04-30T01:45:59.527Z,98180.64
2018-04-30T01:48:28.888Z,98179.61
2018-04-30T01:50:58.203Z,98175.41
2018-04-30T01:53:27.838Z,98172.59
2018-04-30T01:55:57.408Z,98166.96
2018-04-30T01:58:26.972Z,98161.74
2018-04-30T02:00:56.579Z,98167.36
2018-04-30T02:03:26.271Z,98160.88
2018-04-30T02:05:55.857Z,98161.09
2018-04-30T02:08:25.408Z,98157.58
2018-04-30T02:10:55.795Z,98158.94
2018-04-30T02:13:25.113Z,98150.74
2018-04-30T02:15:54.663Z,98144.28
2018-04-30T02:18:23.997Z,98148.72
2018-04-30T02:20:53.635Z,98158.84
2018-04-30T02:23:23.183Z,98163.34
2018-04-30T02:25:52.750Z,98152.27
2018-04-30T02:28:22.321Z,98147.76
2018-04-30T02:30:51.970Z,98140.84
2018-04-30T02:33:21.569Z,98150.16
2018-04-30T02:35:51.123Z,98159.72
2018-04-30T02:38:20.689Z,98169.68
2018-04-30T02:40:50.254Z,98168.33
2018-04-30T02:43:19.807Z,98164.58
2018-04-30T02:45:49.388Z,98164.31
2018-04-30T02:48:19.320Z,98150.48
2018-04-30T02:50:48.883Z,98150.87
2018-04-30T02:53:18.484Z,98151.59
2018-04-30T02:55:48.059Z,98160.56
2018-04-30T02:58:17.656Z,98160.62
2018-04-30T03:00:47.254Z,98152.64
2018-04-30T03:03:16.823Z,98151.17
2018-04-30T03:05:46.399Z,98155.42
2018-04-30T03:08:16.708Z,98155.27
2018-04-30T03:10:46.266Z,98160.59
2018-04-30T03:13:15.887Z,98157.48
2018-04-30T03:15:45.476Z,98160.84
2018-04-30T03:18:14.712Z,98156.61
2018-04-30T03:20:44.287Z,98144.98
2018-04-30T03:23:13.877Z,98152.70
2018-04-30T03:25:43.452Z,98148.20
2018-04-30T03:28:13.013Z,98150.30
2018-04-30T03:30:42.575Z,98148.52
2018-04-30T03:33:12.254Z,98148.77
2018-04-30T03:35:41.817Z,98149.98
2018-04-30T03:38:11.388Z,98152.79
2018-04-30T03:40:40.947Z,98153.36
2018-04-30T03:43:10.498Z,98156.50
2018-04-30T03:45:40.266Z,98161.23
2018-04-30T03:48:09.855Z,98157.39
2018-04-30T03:50:39.406Z,98169.84
2018-04-30T03:53:08.989Z,98167.02
2018-04-30T03:55:38.550Z,98164.75
2018-04-30T03:58:08.099Z,98165.08
2018-04-30T04:00:48.742Z,98169.97
2018-04-30T04:03:29.216Z,98166.33
2018-04-30T04:09:19.734Z,98168.33
2018-04-30T04:11:49.359Z,98176.24
2018-04-30T04:14:18.928Z,98173.37
2018-04-30T04:16:48.506Z,98168.30
2018-04-30T04:19:18.061Z,98165.06
2018-04-30T04:21:47.782Z,98165.14
2018-04-30T04:24:17.327Z,98166.90
2018-04-30T04:26:46.896Z,98160.98
2018-04-30T04:29:16.481Z,98164.14
2018-04-30T04:31:46.102Z,98162.61
2018-04-30T04:34:15.660Z,98168.81
2018-04-30T04:36:45.275Z,98166.08
2018-04-30T04:39:14.835Z,98167.64
2018-04-30T04:41:44.511Z,98166.92
2018-04-30T04:44:14.286Z,98167.66
2018-04-30T04:46:43.871Z,98168.80
2018-04-30T04:49:13.423Z,98173.23
2018-04-30T04:51:43.016Z,98173.80
2018-04-30T04:54:12.575Z,98176.31
2018-04-30T04:56:42.144Z,98184.59
2018-04-30T04:59:11.723Z,98181.90
2018-04-30T05:01:41.295Z,98175.95
2018-04-30T05:04:10.858Z,98184.73
2018-04-30T05:06:40.439Z,98184.75
2018-04-30T05:09:10.166Z,98181.75
2018-04-30T05:11:39.853Z,98180.80
2018-04-30T05:14:09.547Z,98181.53
2018-04-30T05:16:39.096Z,98180.01
2018-04-30T05:19:08.692Z,98186.94
2018-04-30T05:21:38.294Z,98183.15
2018-04-30T05:24:07.936Z,98187.11
2018-04-30T05:26:37.516Z,98193.23
2018-04-30T05:29:07.075Z,98189.30
2018-04-30T05:31:36.642Z,98185.59
2018-04-30T05:34:06.212Z,98177.36
2018-04-30T05:36:35.827Z,98184.89
2018-04-30T05:39:04.642Z,98179.03
2018-04-30T05:41:34.212Z,98182.12
2018-04-30T05:44:03.806Z,98182.98
2018-04-30T05:46:33.382Z,98183.95
2018-04-30T05:49:02.941Z,98182.44
2018-04-30T05:51:32.685Z,98171.56
2018-04-30T05:54:02.255Z,98180.75
2018-04-30T05:56:31.819Z,98176.09
2018-04-30T05:59:01.173Z,98171.66
2018-04-30T06:01:30.819Z,98168.88
2018-04-30T06:04:00.475Z,98170.87
2018-04-30T06:06:30.077Z,98159.13
2018-04-30T06:08:59.635Z,98165.56
2018-04-30T06:11:29.216Z,98172.56
2018-04-30T06:13:58.807Z,98170.48
2018-04-30T06:16:28.244Z,98174.34
2018-04-30T06:18:58.965Z,98172.91
2018-04-30T06:21:28.750Z,98167.59
2018-04-30T06:23:58.203Z,98171.13
2018-04-30T06:26:27.857Z,98161.92
2018-04-30T06:28:57.153Z,98163.22
2018-04-30T06:31:26.428Z,98153.80
2018-04-30T06:33:56.008Z,98155.16
2018-04-30T06:36:25.675Z,98165.91
2018-04-30T06:38:55.021Z,98139.16
2018-04-30T06:41:24.324Z,98126.72
2018-04-30T06:43:53.604Z,98134.41
2018-04-30T06:46:23.192Z,98135.16
2018-04-30T06:48:52.752Z,98122.75
2018-04-30T06:51:22.341Z,98118.49
2018-04-30T06:53:51.931Z,98124.80
2018-04-30T06:56:21.232Z,98108.27
2018-04-30T06:58:50.510Z,98102.63
2018-04-30T07:01:19.874Z,98105.13
2018-04-30T07:03:49.170Z,98103.85
2018-04-30T07:06:18.460Z,98124.39
2018-04-30T07:08:47.768Z,98135.11
2018-04-30T07:11:17.144Z,98141.47
2018-04-30T07:13:46.821Z,98149.11
2018-04-30T07:16:16.118Z,98152.92
2018-04-30T07:18:45.395Z,98162.58
2018-04-30T07:21:14.688Z,98158.58
2018-04-30T07:23:43.970Z,98167.83
2018-04-30T07:26:13.566Z,98164.59
2018-04-30T07:28:42.906Z,98168.05
2018-04-30T07:31:12.187Z,98163.02
2018-04-30T07:33:41.483Z,98169.95
2018-04-30T07:36:10.842Z,98176.38
2018-04-30T07:38:40.123Z,98175.88
2018-04-30T07:41:09.483Z,98176.86
2018-04-30T07:43:38.793Z,98170.78
2018-04-30T07:46:08.372Z,98172.52
2018-04-30T07:48:38.001Z,98162.26
2018-04-30T07:51:07.572Z,98155.72
2018-04-30T07:53:36.860Z,98158.81
2018-04-30T07:56:06.292Z,98153.64
2018-04-30T07:58:35.860Z,98153.23
2018-04-30T08:01:05.443Z,98152.64
2018-04-30T08:03:35.158Z,98154.63
2018-04-30T08:06:04.478Z,98149.86
2018-04-30T08:08:34.049Z,98158.89
2018-04-30T08:11:04.218Z,98154.45
2018-04-30T08:13:33.806Z,98164.91
2018-04-30T08:16:03.203Z,98158.72
2018-04-30T08:18:32.802Z,98174.41
2018-04-30T08:21:02.089Z,98157.71
2018-04-30T08:23:31.417Z,98172.86
2018-04-30T08:26:00.682Z,98165.70
2018-04-30T08:28:30.134Z,98169.36
2018-04-30T08:30:59.739Z,98171.00
2018-04-30T08:33:29.311Z,98174.05
2018-04-30T08:35:58.604Z,98177.34
2018-04-30T08:38:27.923Z,98167.51
2018-04-30T08:40:58.074Z,98172.10
2018-04-30T08:43:27.369Z,98168.56
2018-04-30T08:45:56.651Z,98162.62
2018-04-30T08:48:26.452Z,98162.85
2018-04-30T08:50:55.743Z,98169.98
2018-04-30T08:53:25.035Z,98177.58
2018-04-30T08:55:54.656Z,98161.14
2018-04-30T08:58:23.991Z,98154.84
2018-04-30T09:00:53.263Z,98162.59
2018-04-30T09:03:22.555Z,98152.77
2018-04-30T09:05:51.855Z,98152.64
2018-04-30T09:08:21.151Z,98152.66
2018-04-30T09:10:50.428Z,98164.89
2018-04-30T09:13:20.031Z,98147.40
2018-04-30T09:15:49.315Z,98150.84
2018-04-30T09:18:18.584Z,98148.31
2018-04-30T09:20:47.880Z,98146.12
2018-04-30T09:23:17.435Z,98139.66
2018-04-30T09:25:47.078Z,98150.41
2018-04-30T09:28:16.450Z,98134.37
2018-04-30T09:30:46.136Z,98146.94
2018-04-30T09:33:15.450Z,98134.86
2018-04-30T09:35:45.000Z,98137.76
2018-04-30T09:38:14.473Z,98161.48
2018-04-30T09:40:46.976Z,98126.42
2018-04-30T09:43:16.687Z,98142.15
2018-04-30T09:45:45.963Z,98132.32
2018-04-30T09:48:15.261Z,98127.43
2018-04-30T09:50:44.554Z,98127.58
2018-04-30T09:53:14.284Z,98125.86
2018-04-30T09:55:43.576Z,98119.56
2018-04-30T09:58:13.131Z,98116.70
2018-04-30T10:00:42.431Z,98119.80
2018-04-30T10:03:11.705Z,98114.28
2018-04-30T10:05:41.261Z,98102.76
2018-04-30T10:08:10.547Z,98115.92
2018-04-30T10:10:39.833Z,98105.22
2018-04-30T10:13:09.190Z,98114.20
2018-04-30T10:15:38.586Z,98104.41
2018-04-30T10:18:07.533Z,98120.50
2018-04-30T10:20:36.870Z,98117.34
2018-04-30T10:23:06.493Z,98111.31
2018-04-30T10:25:35.802Z,98111.69
2018-04-30T10:28:05.119Z,98107.86
2018-04-30T10:30:34.444Z,98116.09
2018-04-30T10:33:03.748Z,98108.32
2018-04-30T10:35:33.319Z,98109.38
2018-04-30T10:38:02.664Z,98105.83
2018-04-30T10:40:32.194Z,98104.67
2018-04-30T10:43:01.634Z,98094.76
2018-04-30T10:45:30.927Z,98094.67
2018-04-30T10:48:00.302Z,98092.78
2018-04-30T10:50:29.599Z,98084.22
2018-04-30T10:52:59.177Z,98092.69
2018-04-30T10:55:28.759Z,98093.67
2018-04-30T10:57:58.052Z,98103.59
2018-04-30T11:00:27.482Z,98110.31
2018-04-30T11:02:56.822Z,98104.68
2018-04-30T11:05:26.111Z,98098.93
2018-04-30T11:07:55.470Z,98108.40
2018-04-30T11:10:24.766Z,98115.11
2018-04-30T11:12:54.088Z,98103.91
2018-04-30T11:15:23.366Z,98106.80
2018-04-30T11:17:52.673Z,98105.75
2018-04-30T11:20:21.946Z,98098.25
2018-04-30T11:22:54.126Z,98105.70
2018-04-30T11:25:23.780Z,98110.70
2018-04-30T11:27:53.063Z,98107.59
2018-04-30T11:30:22.354Z,98106.90
2018-04-30T11:32:51.417Z,98107.55
2018-04-30T11:35:20.948Z,98106.18
2018-04-30T11:37:50.451Z,98090.41
2018-04-30T11:40:19.970Z,98095.67
2018-04-30T11:42:49.463Z,98111.22
2018-04-30T11:45:18.763Z,98113.03
2018-04-30T11:47:48.250Z,98126.31
2018-04-30T11:50:17.552Z,98135.47
2018-04-30T11:52:46.847Z,98132.84
2018-04-30T11:55:16.342Z,98136.03
2018-04-30T11:57:46.239Z,98118.33
2018-04-30T12:00:15.533Z,98132.34
2018-04-30T12:02:45.023Z,98136.18
2018-04-30T12:05:14.319Z,98143.98
2018-04-30T12:07:43.603Z,98146.33
2018-04-30T12:10:12.924Z,98140.48
2018-04-30T12:12:42.207Z,98142.30
2018-04-30T12:15:11.491Z,98158.75
2018-04-30T12:17:40.788Z,98148.54
2018-04-30T12:20:10.323Z,98160.55
2018-04-30T12:22:39.827Z,98154.85
2018-04-30T12:25:09.342Z,98155.08
2018-04-30T12:27:38.658Z,98161.21
2018-04-30T12:30:08.451Z,98168.29
2018-04-30T12:32:37.773Z,98159.73
2018-04-30T12:35:07.048Z,98163.33
2018-04-30T12:37:36.424Z,98168.89
2018-04-30T12:40:05.709Z,98162.87
2018-04-30T12:42:34.980Z,98155.41
2018-04-30T12:45:04.577Z,98150.52
2018-04-30T12:47:33.938Z,98150.02
2018-04-30T12:50:03.234Z,98148.34
2018-04-30T12:52:32.528Z,98142.44
2018-04-30T12:55:02.035Z,98142.27
2018-04-30T12:57:31.519Z,98150.34
2018-04-30T13:00:01.024Z,98151.58
2018-04-30T13:02:30.390Z,98142.84
2018-04-30T13:04:59.912Z,98140.00
2018-04-30T13:07:29.195Z,98145.39
2018-04-30T13:09:58.758Z,98134.21
2018-04-30T13:12:28.262Z,98140.53
2018-04-30T13:14:57.772Z,98140.11
2018-04-30T13:17:27.067Z,98133.02
2018-04-30T13:19:56.349Z,98120.74
2018-04-30T13:22:25.635Z,98121.54
2018-04-30T13:24:54.950Z,98116.33
2018-04-30T13:27:24.219Z,98105.70
2018-04-30T13:29:53.516Z,98106.73
2018-04-30T13:32:22.793Z,98114.27
2018-04-30T13:34:52.086Z,98107.48
2018-04-30T13:37:21.441Z,98116.73
2018-04-30T13:39:51.024Z,98113.08
2018-04-30T13:42:20.384Z,98109.87
2018-04-30T13:44:49.704Z,98094.56
2018-04-30T13:47:19.048Z,98087.50
2018-04-30T13:49:48.729Z,98081.20
2018-04-30T13:52:18.055Z,98067.27
2018-04-30T13:54:47.344Z,98062.16
2018-04-30T13:57:16.675Z,98054.38
2018-04-30T13:59:46.001Z,98061.27
2018-04-30T14:02:15.309Z,98045.34
2018-04-30T14:04:44.592Z,98060.59
2018-04-30T14:07:14.081Z,98039.41
2018-04-30T14:09:43.431Z,98041.39
2018-04-30T14:12:12.712Z,98039.29
2018-04-30T14:14:42.198Z,98042.28
2018-04-30T14:17:11.540Z,98043.84
2018-04-30T14:19:40.860Z,98048.51
2018-04-30T14:22:10.213Z,98048.66
2018-04-30T14:24:39.504Z,98060.39
2018-04-30T14:27:08.914Z,98062.51
2018-04-30T14:29:38.216Z,98044.52
2018-04-30T14:32:07.511Z,98068.07
2018-04-30T14:34:36.813Z,98067.80
2018-04-30T14:37:06.100Z,98065.83
2018-04-30T14:39:35.382Z,98071.58
2018-04-30T14:42:04.460Z,98069.44
2018-04-30T14:44:33.752Z,98083.00
2018-04-30T14:47:03.076Z,98065.66
2018-04-30T14:49:32.454Z,98064.02
2018-04-30T14:52:01.771Z,98063.02
2018-04-30T14:54:31.045Z,98067.52
2018-04-30T14:57:00.318Z,98064.48
2018-04-30T14:59:29.725Z,98065.40
2018-04-30T15:01:58.991Z,98070.77
2018-04-30T15:04:28.292Z,98066.72
2018-04-30T15:06:57.432Z,98073.72
2018-04-30T15:09:26.716Z,98077.26
2018-04-30T15:11:56.061Z,98076.55
2018-04-30T15:14:25.333Z,98072.22
2018-04-30T15:16:54.813Z,98081.39
2018-04-30T15:19:24.192Z,98090.53
2018-04-30T15:21:53.648Z,98080.98
2018-04-30T15:24:22.932Z,98077.08
2018-04-30T15:26:52.249Z,98077.73
2018-04-30T15:29:21.534Z,98071.36
2018-04-30T15:31:50.830Z,98069.39
2018-04-30T15:34:20.130Z,98064.58
2018-04-30T15:36:49.409Z,98060.88
2018-04-30T15:39:18.703Z,98065.98
2018-04-30T15:41:48.100Z,98069.84
2018-04-30T15:44:17.388Z,98054.84
2018-04-30T15:46:46.666Z,98046.01
2018-04-30T15:49:15.934Z,98065.81
2018-04-30T15:51:45.259Z,98050.69
2018-04-30T15:54:14.540Z,98040.35
2018-04-30T15:56:44.107Z,98048.22
2018-04-30T15:59:13.381Z,98049.17
2018-04-30T16:01:42.675Z,98045.63
2018-04-30T16:04:12.079Z,98056.05
2018-04-30T16:06:41.361Z,98048.88
2018-04-30T16:09:10.711Z,98060.00
2018-04-30T16:11:40.327Z,98049.91
2018-04-30T16:14:09.636Z,98058.96
2018-04-30T16:16:39.306Z,98049.68
2018-04-30T16:19:08.587Z,98050.72
2018-04-30T16:21:37.901Z,98040.03
2018-04-30T16:24:07.167Z,98055.27
2018-04-30T16:26:36.518Z,98045.92
2018-04-30T16:29:05.826Z,98054.16
2018-04-30T16:31:35.109Z,98055.14
2018-04-30T16:34:04.187Z,98048.42
2018-04-30T16:36:33.525Z,98047.56
2018-04-30T16:39:02.807Z,98062.28
2018-04-30T16:41:32.313Z,98061.27
2018-04-30T16:44:01.658Z,98070.27
2018-04-30T16:46:30.930Z,98066.02
2018-04-30T16:49:00.228Z,98077.03
2018-04-30T16:51:29.531Z,98058.57
2018-04-30T16:53:58.836Z,98061.40
2018-04-30T16:56:28.143Z,98082.79
2018-04-30T16:58:57.427Z,98073.97
2018-04-30T17:01:26.699Z,98082.70
2018-04-30T17:03:55.995Z,98077.30
2018-04-30T17:06:25.291Z,98072.59
2018-04-30T17:08:54.635Z,98079.09
2018-04-30T17:11:23.917Z,98084.19
2018-04-30T17:13:53.205Z,98082.88
2018-04-30T17:16:22.793Z,98088.50
2018-04-30T17:18:52.072Z,98087.70
2018-04-30T17:21:21.748Z,98078.47
2018-04-30T17:23:51.035Z,98091.39
2018-04-30T17:26:20.306Z,98087.98
2018-04-30T17:28:49.814Z,98089.02
2018-04-30T17:31:19.096Z,98090.94
2018-04-30T17:33:48.384Z,98100.12
2018-04-30T17:36:19.469Z,98111.23
2018-04-30T17:38:49.097Z,98108.81
2018-04-30T17:41:18.437Z,98120.67
2018-04-30T17:43:47.867Z,98120.48
2018-04-30T17:46:17.144Z,98121.75
2018-04-30T17:48:46.551Z,98132.57
2018-04-30T17:51:15.848Z,98134.16
2018-04-30T17:53:45.128Z,98136.57
2018-04-30T17:56:14.685Z,98147.36
2018-04-30T17:58:44.043Z,98144.15
2018-04-30T18:01:13.485Z,98146.09
2018-04-30T18:03:42.782Z,98145.45
2018-04-30T18:06:12.076Z,98139.70
2018-04-30T18:08:41.407Z,98150.78
2018-04-30T18:11:10.684Z,98148.89
2018-04-30T18:13:40.025Z,98154.98
2018-04-30T18:16:09.292Z,98157.35
2018-04-30T18:18:38.580Z,98162.80
2018-04-30T18:21:07.853Z,98170.98
2018-04-30T18:23:37.131Z,98161.26
2018-04-30T18:26:06.415Z,98170.93
2018-04-30T18:28:35.693Z,98169.37
2018-04-30T18:31:04.995Z,98172.53
2018-04-30T18:33:34.276Z,98171.69
2018-04-30T18:36:03.313Z,98174.16
2018-04-30T18:38:32.620Z,98178.66
2018-04-30T18:41:01.892Z,98186.61
2018-04-30T18:43:31.174Z,98178.98
2018-04-30T18:46:00.461Z,98176.59
2018-04-30T18:48:29.737Z,98185.81
2018-04-30T18:50:59.044Z,98186.25
2018-04-30T18:53:28.323Z,98186.73
2018-04-30T18:55:58.119Z,98197.71
2018-04-30T18:58:27.437Z,98194.00
2018-04-30T19:00:56.707Z,98198.48
2018-04-30T19:03:26.717Z,98205.33
2018-04-30T19:05:56.050Z,98209.23
2018-04-30T19:08:25.328Z,98211.97
2018-04-30T19:10:54.618Z,98210.50
2018-04-30T19:13:23.920Z,98215.77
2018-04-30T19:15:53.216Z,98214.54
2018-04-30T19:18:22.520Z,98213.87
2018-04-30T19:20:52.139Z,98218.50
2018-04-30T19:23:21.411Z,98219.40
2018-04-30T19:25:50.986Z,98212.19
2018-04-30T19:28:20.319Z,98218.13
2018-04-30T19:30:49.653Z,98216.67
2018-04-30T19:33:18.948Z,98216.96
2018-04-30T19:35:48.247Z,98219.11
2018-04-30T19:38:17.531Z,98219.28
2018-04-30T19:40:46.844Z,98225.03
2018-04-30T19:43:16.131Z,98221.84
2018-04-30T19:45:45.450Z,98223.69
2018-04-30T19:48:16.625Z,98225.53
2018-04-30T19:50:45.966Z,98216.58
2018-04-30T19:53:15.247Z,98214.75
2018-04-30T19:55:44.543Z,98219.83
2018-04-30T19:58:13.936Z,98212.03
2018-04-30T20:00:43.233Z,98212.66
2018-04-30T20:03:12.585Z,98213.08
2018-04-30T20:05:41.872Z,98208.72
2018-04-30T20:08:11.306Z,98214.46
2018-04-30T20:10:40.653Z,98220.84
2018-04-30T20:13:10.004Z,98226.58
2018-04-30T20:15:39.860Z,98233.03
2018-04-30T20:18:09.214Z,98239.64
2018-04-30T20:20:38.509Z,98241.81
2018-04-30T20:23:07.861Z,98240.14
2018-04-30T20:25:37.192Z,98237.50
2018-04-30T20:28:06.531Z,98240.80
2018-04-30T20:30:35.843Z,98242.02
2018-04-30T20:33:05.127Z,98248.46
2018-04-30T20:35:34.574Z,98255.22
2018-04-30T20:38:03.961Z,98255.06
2018-04-30T20:40:34.151Z,98250.80
2018-04-30T20:43:03.471Z,98255.25
2018-04-30T20:45:32.875Z,98257.49
2018-04-30T20:48:02.164Z,98257.59
2018-04-30T20:50:31.565Z,98254.20
2018-04-30T20:53:01.119Z,98255.09
2018-04-30T20:55:30.397Z,98259.42
2018-04-30T20:57:59.689Z,98255.09
2018-04-30T21:00:29.019Z,98256.78
2018-04-30T21:02:58.349Z,98255.97
2018-04-30T21:05:30.627Z,98250.99
2018-04-30T21:07:59.969Z,98254.59
2018-04-30T21:10:29.674Z,98257.98
2018-04-30T21:12:59.004Z,98261.92
2018-04-30T21:15:28.156Z,98263.69
2018-04-30T21:17:57.470Z,98259.64
2018-04-30T21:20:26.416Z,98260.04
2018-04-30T21:22:56.010Z,98260.78
2018-04-30T21:25:25.916Z,98263.83
2018-04-30T21:27:55.384Z,98276.45
2018-04-30T21:30:24.949Z,98273.39
2018-04-30T21:32:54.309Z,98282.81
2018-04-30T21:35:23.598Z,98290.69
2018-04-30T21:37:52.877Z,98298.87
2018-04-30T21:40:22.246Z,98305.53
2018-04-30T21:42:51.528Z,98306.82
2018-04-30T21:45:20.803Z,98306.56
2018-04-30T21:47:50.100Z,98300.45
2018-04-30T21:50:19.369Z,98307.98
2018-04-30T21:52:48.931Z,98303.88
2018-04-30T21:55:18.500Z,98306.03
2018-04-30T21:57:47.781Z,98311.09
2018-04-30T22:00:16.513Z,98300.69
2018-04-30T22:02:45.706Z,98304.36
2018-04-30T22:05:15.268Z,98299.83
2018-04-30T22:07:44.842Z,98305.68
2018-04-30T22:10:14.401Z,98309.86
2018-04-30T22:12:43.969Z,98311.90
2018-04-30T22:15:13.547Z,98314.30
2018-04-30T22:17:43.099Z,98319.13
2018-04-30T22:20:12.531Z,98312.25
2018-04-30T22:22:41.814Z,98317.71
2018-04-30T22:25:11.364Z,98319.81
2018-04-30T22:27:40.961Z,98320.92
2018-04-30T22:30:10.538Z,98323.36
2018-04-30T22:32:39.853Z,98322.47
2018-04-30T22:35:09.447Z,98326.56
2018-04-30T22:37:38.731Z,98318.30
2018-04-30T22:40:08.310Z,98324.24
2018-04-30T22:42:37.703Z,98324.31
2018-04-30T22:45:07.268Z,98317.16
2018-04-30T22:47:36.846Z,98319.66
2018-04-30T22:50:06.401Z,98320.25
2018-04-30T22:52:35.754Z,98321.21
2018-04-30T22:55:05.327Z,98322.88
2018-04-30T22:57:34.961Z,98333.17
2018-04-30T23:00:04.282Z,98332.29
2018-04-30T23:02:33.404Z,98331.07
2018-04-30T23:05:02.979Z,98328.23
2018-04-30T23:07:32.559Z,98331.07
2018-04-30T23:10:02.136Z,98338.38
2018-04-30T23:12:31.763Z,98338.20
2018-04-30T23:15:01.350Z,98344.67
2018-04-30T23:17:30.916Z,98339.53
2018-04-30T23:20:00.467Z,98345.92
2018-04-30T23:22:32.305Z,98345.04
2018-04-30T23:25:01.627Z,98342.94
2018-04-30T23:27:31.199Z,98350.88
2018-04-30T23:30:00.769Z,98354.64
2018-04-30T23:32:30.134Z,98366.89
2018-04-30T23:34:59.848Z,98361.76
2018-04-30T23:37:29.420Z,98363.02
2018-04-30T23:39:58.983Z,98367.73
2018-04-30T23:42:28.575Z,98372.31
2018-04-30T23:44:58.284Z,98371.72
2018-04-30T23:47:27.839Z,98369.62
2018-04-30T23:49:57.433Z,98367.02
2018-04-30T23:52:27.205Z,98369.41
2018-04-30T23:54:56.756Z,98362.95
2018-04-30T23:57:26.569Z,98368.08
2018-04-30T23:59:56.240Z,98377.47
